LiveATC.Net - Listen to live air traffic control over the Internet!


ICAO: KEUL  IATA: EUL   Airport: Caldwell Industrial Airport
City: Nampa   State/Province: Idaho
Country: United States   Continent: North America
KEUL METAR Weather: KEUL 262256Z AUTO 08003KT 10SM OVC019 M01/M04 A3039 RMK AO2 SLP313 T10061044 FZRANO
KEUL Flight Activity (FlightAware)
KEUL Webcam:  (Airport Webcams) 
KEUL Airport Info   (iFlightPlanner)
KEUL VFR Sectional Chart   (iFlightPlanner) 
KEUL IFR Low Altitude Chart   (iFlightPlanner) 
KEUL IFR High Altitude Chart   (iFlightPlanner) 

KMAN/KEUL CTAF
Feed Status: UP   Listeners: 0
Listen in your browser - HTML5 player (in browser, HTML5)
Click here to listen with your own player (launches your MP3 player)
Archive Access: KMAN/KEUL CTAF
FacilityFrequency
Nampa/Caldwell CTAF/UNICOM122.700
Feed provided by: T-Craft Aero Club

NOTICE

Unauthorized use prohibited. See LiveATC.net Terms of Service


Airport/ARTCC Code
Frequency Search
(e.g., 124.400, 128.75)
Site-wide search
 


Browse Feeds
Top 50 Feeds
HF Oceanic Feeds
Coverage Map
Bad Weather Areas

LiveATC FAQ
Offer LiveATC feed
Contact LiveATC.net
Press Inquiries

LiveATC on iPhone
LiveATC on Android

LiveATC Mobile
(Mobile browser)

ATC Audio Archives
Interesting Recordings

LiveATC Forums


Home Page
About LiveATC.net
Make a Donation
Terms of Use
Privacy Policy

Canadian Air Freqs

AIRMETs/SIGMETs

FAA Airport Status
NAS Status
Arrival Demand


Server Software By:
Icecast.org
Liquidsoap